Time,TemperatureF,DewpointF,PressureIn,WindDirection,WindDirectionDegrees,WindSpeedMPH,WindSpeedGustMPH,Humidity,HourlyPrecipIn,Conditions,Clouds,dailyrainin,SoftwareType,DateUTC
2013-02-08 00:00:00,54.0,7.4,29.15,ESE,103,0.0,2.2,15,0.00,,,0.00,VWS V13.01,2013-02-08 05:00:00,
2013-02-08 00:01:00,54.0,7.4,29.15,ESE,115,2.7,2.7,15,0.00,,,0.00,VWS V13.01,2013-02-08 05:01:00,
2013-02-08 00:06:00,53.8,7.2,29.15,ESE,120,2.2,2.2,15,0.00,,,0.00,VWS V13.01,2013-02-08 05:06:00,
2013-02-08 00:11:00,53.6,7.1,29.15,East,79,4.0,4.5,15,0.00,,,0.00,VWS V13.01,2013-02-08 05:11:00,
2013-02-08 00:16:00,53.6,7.1,29.15,ESE,111,2.7,3.1,15,0.00,,,0.00,VWS V13.01,2013-02-08 05:16:00,
2013-02-08 00:21:00,53.6,11.1,29.15,East,100,5.4,5.4,18,0.00,,,0.00,VWS V13.01,2013-02-08 05:21:00,
2013-02-08 00:26:00,53.8,11.3,29.15,East,97,2.2,3.1,18,0.00,,,0.00,VWS V13.01,2013-02-08 05:26:00,
2013-02-08 00:31:00,53.8,11.3,29.15,ESE,116,3.1,4.9,18,0.00,,,0.00,VWS V13.01,2013-02-08 05:31:00,
2013-02-08 00:36:00,53.6,11.1,29.15,ESE,118,2.7,2.7,18,0.00,,,0.00,VWS V13.01,2013-02-08 05:36:00,
2013-02-08 00:41:00,53.2,10.9,29.15,ESE,113,2.7,2.7,18,0.00,,,0.00,VWS V13.01,2013-02-08 05:41:00,
2013-02-08 00:46:00,53.1,10.7,29.15,East,85,3.1,4.0,18,0.00,,,0.00,VWS V13.01,2013-02-08 05:46:00,
2013-02-08 00:51:00,53.1,10.7,29.15,ESE,107,3.6,3.6,18,0.00,,,0.00,VWS V13.01,2013-02-08 05:51:00,
2013-02-08 00:56:00,52.9,10.6,29.15,SE,128,0.0,2.7,18,0.00,,,0.00,VWS V13.01,2013-02-08 05:56:00,
2013-02-08 01:01:00,52.5,13.7,29.15,ESE,118,5.8,5.8,21,0.00,,,0.00,VWS V13.01,2013-02-08 06:01:00,
2013-02-08 01:06:00,52.7,13.9,29.15,SE,127,4.9,4.9,21,0.00,,,0.00,VWS V13.01,2013-02-08 06:06:00,
2013-02-08 01:11:00,52.7,13.9,29.15,SE,131,4.9,4.9,21,0.00,,,0.00,VWS V13.01,2013-02-08 06:11:00,
2013-02-08 01:16:00,52.5,13.7,29.15,SW,227,3.6,4.9,21,0.00,,,0.00,VWS V13.01,2013-02-08 06:16:00,
2013-02-08 01:21:00,52.2,15.5,29.15,ENE,77,0.0,2.7,23,0.00,,,0.00,VWS V13.01,2013-02-08 06:21:00,
2013-02-08 01:26:00,52.0,15.4,29.15,SSE,148,3.6,3.6,23,0.00,,,0.00,VWS V13.01,2013-02-08 06:26:00,
2013-02-08 01:31:00,51.8,18.0,29.15,ENE,65,3.1,3.1,26,0.00,,,0.00,VWS V13.01,2013-02-08 06:31:00,
2013-02-08 01:36:00,51.6,16.0,29.15,SE,131,0.0,0.0,24,0.00,,,0.00,VWS V13.01,2013-02-08 06:36:00,
2013-02-08 01:41:00,51.4,17.7,29.15,SE,131,2.2,2.2,26,0.00,,,0.00,VWS V13.01,2013-02-08 06:41:00,
2013-02-08 01:46:00,51.4,17.7,29.15,ESE,104,2.7,2.7,26,0.00,,,0.00,VWS V13.01,2013-02-08 06:46:00,
2013-02-08 01:51:00,51.6,17.9,29.12,East,89,3.6,3.6,26,0.00,,,0.00,VWS V13.01,2013-02-08 06:51:00,
2013-02-08 01:56:00,51.4,17.7,29.12,ESE,122,2.7,3.1,26,0.00,,,0.00,VWS V13.01,2013-02-08 06:56:00,
2013-02-08 02:01:00,51.4,18.6,29.12,ESE,112,3.1,5.4,27,0.00,,,0.00,VWS V13.01,2013-02-08 07:01:00,
2013-02-08 02:06:00,51.4,18.6,29.12,SE,124,5.8,5.8,27,0.00,,,0.00,VWS V13.01,2013-02-08 07:06:00,
2013-02-08 02:11:00,51.6,18.8,29.12,East,93,3.1,4.9,27,0.00,,,0.00,VWS V13.01,2013-02-08 07:11:00,
2013-02-08 02:17:00,51.6,18.8,29.12,NE,49,3.6,4.0,27,0.00,,,0.00,VWS V13.01,2013-02-08 07:17:00,
2013-02-08 02:22:00,51.4,18.6,29.12,NE,51,3.6,4.0,27,0.00,,,0.00,VWS V13.01,2013-02-08 07:22:00,
2013-02-08 02:27:00,51.6,18.8,29.12,ESE,123,3.6,5.4,27,0.00,,,0.00,VWS V13.01,2013-02-08 07:27:00,
2013-02-08 02:32:00,51.6,18.8,29.12,East,91,4.9,6.3,27,0.00,,,0.00,VWS V13.01,2013-02-08 07:32:00,
2013-02-08 02:37:00,51.8,18.9,29.12,ENE,66,4.0,6.3,27,0.00,,,0.00,VWS V13.01,2013-02-08 07:37:00,
2013-02-08 02:42:00,51.8,18.9,29.12,ESE,110,4.0,4.9,27,0.00,,,0.00,VWS V13.01,2013-02-08 07:42:00,
2013-02-08 02:47:00,51.8,18.9,29.12,ENE,75,5.8,6.3,27,0.00,,,0.00,VWS V13.01,2013-02-08 07:47:00,
2013-02-08 02:52:00,51.6,18.8,29.12,East,100,2.7,4.9,27,0.00,,,0.00,VWS V13.01,2013-02-08 07:52:00,
2013-02-08 02:57:00,51.4,19.4,29.12,SSE,151,4.5,6.3,28,0.00,,,0.00,VWS V13.01,2013-02-08 07:57:00,
2013-02-08 03:02:00,51.4,19.4,29.12,ESE,104,4.0,5.4,28,0.00,,,0.00,VWS V13.01,2013-02-08 08:02:00,
2013-02-08 03:07:00,51.6,19.6,29.12,ESE,113,4.5,5.8,28,0.00,,,0.00,VWS V13.01,2013-02-08 08:07:00,
2013-02-08 03:12:00,51.6,19.6,29.12,East,80,4.5,4.5,28,0.00,,,0.00,VWS V13.01,2013-02-08 08:12:00,
2013-02-08 03:17:00,51.6,19.6,29.12,ESE,117,4.0,4.0,28,0.00,,,0.00,VWS V13.01,2013-02-08 08:17:00,
2013-02-08 03:22:00,51.6,18.8,29.12,SE,133,2.7,2.7,27,0.00,,,0.00,VWS V13.01,2013-02-08 08:22:00,
2013-02-08 03:27:00,51.4,19.4,29.12,NE,37,2.7,4.0,28,0.00,,,0.00,VWS V13.01,2013-02-08 08:27:00,
2013-02-08 03:32:00,51.4,19.4,29.09,NE,37,0.0,2.7,28,0.00,,,0.00,VWS V13.01,2013-02-08 08:32:00,
2013-02-08 03:37:00,51.6,19.6,29.09,South,171,4.0,5.4,28,0.00,,,0.00,VWS V13.01,2013-02-08 08:37:00,
2013-02-08 03:42:00,51.6,19.6,29.09,SW,222,3.1,6.3,28,0.00,,,0.00,VWS V13.01,2013-02-08 08:42:00,
2013-02-08 03:47:00,52.0,19.1,29.09,ESE,107,4.0,5.4,27,0.00,,,0.00,VWS V13.01,2013-02-08 08:47:00,
2013-02-08 03:52:00,52.0,19.1,29.09,SE,133,2.2,3.1,27,0.00,,,0.00,VWS V13.01,2013-02-08 08:52:00,
2013-02-08 03:57:00,52.2,19.2,29.09,East,99,4.0,4.0,27,0.00,,,0.00,VWS V13.01,2013-02-08 08:57:00,
2013-02-08 04:02:00,52.2,19.2,29.09,ESE,117,5.8,6.3,27,0.00,,,0.00,VWS V13.01,2013-02-08 09:02:00,
2013-02-08 04:07:00,52.0,19.1,29.09,SE,144,5.4,5.4,27,0.00,,,0.00,VWS V13.01,2013-02-08 09:07:00,
2013-02-08 04:12:00,52.0,19.1,29.09,SSE,163,3.6,4.0,27,0.00,,,0.00,VWS V13.01,2013-02-08 09:12:00,
2013-02-08 04:17:00,51.8,18.9,29.09,SSE,154,3.6,3.6,27,0.00,,,0.00,VWS V13.01,2013-02-08 09:17:00,
2013-02-08 04:22:00,51.8,19.8,29.09,SSE,164,2.7,4.0,28,0.00,,,0.00,VWS V13.01,2013-02-08 09:22:00,
2013-02-08 04:27:00,51.8,19.8,29.09,SSW,196,5.8,6.3,28,0.00,,,0.00,VWS V13.01,2013-02-08 09:27:00,
2013-02-08 04:32:00,52.0,19.9,29.09,South,170,3.1,5.8,28,0.00,,,0.00,VWS V13.01,2013-02-08 09:32:00,
2013-02-08 04:37:00,51.8,19.8,29.09,SSE,149,4.0,5.8,28,0.00,,,0.00,VWS V13.01,2013-02-08 09:37:00,
2013-02-08 04:42:00,51.8,19.8,29.09,South,184,0.0,3.1,28,0.00,,,0.00,VWS V13.01,2013-02-08 09:42:00,
2013-02-08 04:47:00,51.8,20.6,29.09,SE,141,2.7,2.7,29,0.00,,,0.00,VWS V13.01,2013-02-08 09:47:00,
2013-02-08 04:52:00,51.8,20.6,29.09,South,175,2.2,3.6,29,0.00,,,0.00,VWS V13.01,2013-02-08 09:52:00,
2013-02-08 04:57:00,51.6,21.2,29.09,South,185,0.0,0.0,30,0.00,,,0.00,VWS V13.01,2013-02-08 09:57:00,
2013-02-08 05:02:00,51.4,21.1,29.09,South,185,0.0,0.0,30,0.00,,,0.00,VWS V13.01,2013-02-08 10:02:00,
2013-02-08 05:07:00,51.4,23.3,29.12,SW,230,0.0,3.1,33,0.00,,,0.00,VWS V13.01,2013-02-08 10:07:00,
2013-02-08 05:12:00,51.1,24.4,29.12,North,2,2.7,3.1,35,0.00,,,0.00,VWS V13.01,2013-02-08 10:12:00,
2013-02-08 05:17:00,50.9,24.9,29.12,NNW,332,2.7,4.0,36,0.00,,,0.00,VWS V13.01,2013-02-08 10:17:00,
2013-02-08 05:22:00,50.5,25.2,29.12,NNW,332,3.1,4.0,37,0.00,,,0.00,VWS V13.01,2013-02-08 10:22:00,
2013-02-08 05:27:00,50.5,26.5,29.12,NNW,330,4.0,6.3,39,0.04,,,0.04,VWS V13.01,2013-02-08 10:27:00,
2013-02-08 05:32:00,50.2,29.1,29.12,NNW,329,3.6,5.4,44,0.04,,,0.04,VWS V13.01,2013-02-08 10:32:00,
2013-02-08 05:37:00,49.8,30.9,29.12,NW,317,4.0,6.3,48,0.04,,,0.04,VWS V13.01,2013-02-08 10:37:00,
2013-02-08 05:42:00,49.6,31.8,29.12,NNW,333,5.8,5.8,50,0.04,,,0.04,VWS V13.01,2013-02-08 10:42:00,
2013-02-08 05:47:00,49.3,31.9,29.12,WNW,301,5.4,6.3,51,0.04,,,0.04,VWS V13.01,2013-02-08 10:47:00,
2013-02-08 05:52:00,49.3,31.9,29.12,NW,304,3.6,5.4,51,0.04,,,0.04,VWS V13.01,2013-02-08 10:52:00,
2013-02-08 05:57:00,49.1,31.8,29.12,NW,314,5.8,5.8,51,0.04,,,0.04,VWS V13.01,2013-02-08 10:57:00,
2013-02-08 06:02:00,48.9,32.1,29.12,NW,312,4.0,5.8,52,0.04,,,0.04,VWS V13.01,2013-02-08 11:02:00,
2013-02-08 06:07:00,48.9,32.1,29.12,NW,307,3.1,4.9,52,0.08,,,0.08,VWS V13.01,2013-02-08 11:07:00,
2013-02-08 06:12:00,48.9,32.6,29.12,NNW,343,4.0,4.0,53,0.08,,,0.08,VWS V13.01,2013-02-08 11:12:00,
2013-02-08 06:17:00,48.9,33.0,29.12,NNW,330,4.0,5.4,54,0.08,,,0.08,VWS V13.01,2013-02-08 11:17:00,
2013-02-08 06:22:00,48.9,33.0,29.12,NNW,330,5.4,5.4,54,0.08,,,0.08,VWS V13.01,2013-02-08 11:22:00,
2013-02-08 06:27:00,48.9,33.5,29.12,NNW,342,4.0,7.6,55,0.08,,,0.08,VWS V13.01,2013-02-08 11:27:00,
2013-02-08 06:32:00,48.9,33.9,29.12,WNW,289,5.4,6.3,56,0.04,,,0.08,VWS V13.01,2013-02-08 11:32:00,
2013-02-08 06:37:00,48.9,33.9,29.12,WNW,299,2.7,6.3,56,0.04,,,0.08,VWS V13.01,2013-02-08 11:37:00,
2013-02-08 06:42:00,49.1,34.1,29.12,WNW,299,5.4,10.5,56,0.04,,,0.08,VWS V13.01,2013-02-08 11:42:00,
2013-02-08 06:47:00,49.1,34.1,29.15,NW,313,4.0,6.3,56,0.04,,,0.08,VWS V13.01,2013-02-08 11:47:00,
2013-02-08 06:52:00,49.1,34.1,29.15,WNW,299,6.3,7.2,56,0.04,,,0.08,VWS V13.01,2013-02-08 11:52:00,
2013-02-08 06:57:00,49.1,34.1,29.15,NNW,335,6.7,10.5,56,0.04,,,0.08,VWS V13.01,2013-02-08 11:57:00,
2013-02-08 07:02:00,49.1,34.1,29.15,WNW,288,8.1,8.1,56,0.04,,,0.08,VWS V13.01,2013-02-08 12:02:00,
2013-02-08 07:07:00,49.1,34.5,29.15,West,281,5.4,7.6,57,0.00,,,0.08,VWS V13.01,2013-02-08 12:07:00,
2013-02-08 07:12:00,48.9,34.4,29.15,NNW,332,8.1,11.0,57,0.00,,,0.08,VWS V13.01,2013-02-08 12:12:00,
2013-02-08 07:17:00,48.9,34.8,29.15,WNW,284,5.8,9.2,58,0.00,,,0.08,VWS V13.01,2013-02-08 12:17:00,
2013-02-08 07:22:00,48.7,34.6,29.15,WNW,284,11.9,11.9,58,0.00,,,0.08,VWS V13.01,2013-02-08 12:22:00,
2013-02-08 07:27:00,48.7,34.6,29.15,NW,317,8.3,10.5,58,0.00,,,0.08,VWS V13.01,2013-02-08 12:27:00,
2013-02-08 07:32:00,48.6,34.5,29.18,NW,314,8.1,12.8,58,0.04,,,0.12,VWS V13.01,2013-02-08 12:32:00,
2013-02-08 07:37:00,48.4,34.7,29.18,NW,319,8.7,8.7,59,0.04,,,0.12,VWS V13.01,2013-02-08 12:37:00,
2013-02-08 07:42:00,47.7,33.2,29.18,WNW,292,13.2,17.0,57,0.04,,,0.12,VWS V13.01,2013-02-08 12:42:00,
2013-02-08 07:47:00,47.1,30.9,29.18,North,353,5.8,12.8,53,0.04,,,0.12,VWS V13.01,2013-02-08 12:47:00,
2013-02-08 07:52:00,46.8,30.5,29.18,NNW,332,8.7,14.1,53,0.04,,,0.12,VWS V13.01,2013-02-08 12:52:00,
2013-02-08 07:57:00,46.4,30.2,29.18,North,353,8.7,10.5,53,0.04,,,0.12,VWS V13.01,2013-02-08 12:57:00,
2013-02-08 08:02:00,46.0,29.4,29.18,NNW,331,5.8,8.3,52,0.04,,,0.12,VWS V13.01,2013-02-08 13:02:00,
2013-02-08 08:07:00,45.9,29.2,29.21,NNW,335,8.1,11.9,52,0.04,,,0.12,VWS V13.01,2013-02-08 13:07:00,
2013-02-08 08:12:00,45.5,28.9,29.21,North,350,10.1,10.1,52,0.04,,,0.12,VWS V13.01,2013-02-08 13:12:00,
2013-02-08 08:17:00,45.3,27.3,29.21,NW,318,7.6,14.5,49,0.04,,,0.12,VWS V13.01,2013-02-08 13:17:00,
2013-02-08 08:22:00,45.0,25.4,29.21,WNW,299,5.8,8.3,46,0.04,,,0.12,VWS V13.01,2013-02-08 13:22:00,
2013-02-08 08:27:00,44.8,24.8,29.21,WNW,288,10.1,12.3,45,0.04,,,0.12,VWS V13.01,2013-02-08 13:27:00,
2013-02-08 08:32:00,44.6,24.0,29.21,NNW,346,8.3,10.5,44,0.04,,,0.12,VWS V13.01,2013-02-08 13:32:00,
2013-02-08 08:37:00,44.4,24.4,29.23,WNW,289,8.7,10.5,45,0.00,,,0.12,VWS V13.01,2013-02-08 13:37:00,
2013-02-08 08:42:00,44.2,23.7,29.23,NNW,348,10.5,10.5,44,0.00,,,0.12,VWS V13.01,2013-02-08 13:42:00,
2013-02-08 08:47:00,44.1,23.6,29.23,NW,311,5.8,8.7,44,0.00,,,0.12,VWS V13.01,2013-02-08 13:47:00,
2013-02-08 08:52:00,44.1,24.1,29.23,NW,309,10.5,10.5,45,0.00,,,0.12,VWS V13.01,2013-02-08 13:52:00,
2013-02-08 08:57:00,43.3,20.6,29.23,North,353,8.7,11.0,40,0.00,,,0.12,VWS V13.01,2013-02-08 13:57:00,
2013-02-08 09:02:00,42.8,20.2,29.26,WNW,293,11.0,11.0,40,0.00,,,0.12,VWS V13.01,2013-02-08 14:02:00,
2013-02-08 09:07:00,42.3,19.1,29.26,NNW,346,10.5,12.8,39,0.00,,,0.12,VWS V13.01,2013-02-08 14:07:00,
2013-02-08 09:12:00,41.7,19.2,29.26,NNW,330,5.8,12.8,40,0.00,,,0.12,VWS V13.01,2013-02-08 14:12:00,
2013-02-08 09:17:00,41.2,18.7,29.26,NNW,340,12.3,12.3,40,0.00,,,0.12,VWS V13.01,2013-02-08 14:17:00,
2013-02-08 09:22:00,41.0,19.1,29.26,NW,322,9.6,10.1,41,0.00,,,0.12,VWS V13.01,2013-02-08 14:22:00,
2013-02-08 09:27:00,40.8,19.5,29.26,North,0,8.3,8.3,42,0.00,,,0.12,VWS V13.01,2013-02-08 14:27:00,
2013-02-08 09:32:00,40.6,18.8,29.26,NW,316,7.6,8.3,41,0.00,,,0.12,VWS V13.01,2013-02-08 14:32:00,
2013-02-08 09:37:00,40.5,18.1,29.26,NW,314,12.8,12.8,40,0.00,,,0.12,VWS V13.01,2013-02-08 14:37:00,
2013-02-08 09:42:00,40.5,18.1,29.26,WNW,302,6.3,8.3,40,0.00,,,0.12,VWS V13.01,2013-02-08 14:42:00,
2013-02-08 09:47:00,40.5,18.6,29.26,North,349,8.3,8.3,41,0.00,,,0.12,VWS V13.01,2013-02-08 14:47:00,
2013-02-08 09:52:00,40.3,17.9,29.29,NNW,346,10.1,15.0,40,0.00,,,0.12,VWS V13.01,2013-02-08 14:52:00,
2013-02-08 09:57:00,40.1,18.3,29.29,NW,314,11.0,11.0,41,0.00,,,0.12,VWS V13.01,2013-02-08 14:57:00,
2013-02-08 10:02:00,39.9,17.6,29.29,NW,311,10.5,10.5,40,0.00,,,0.12,VWS V13.01,2013-02-08 15:02:00,
2013-02-08 10:07:00,39.7,16.8,29.29,North,353,6.3,11.9,39,0.00,,,0.12,VWS V13.01,2013-02-08 15:07:00,
2013-02-08 10:12:00,39.7,16.8,29.29,NW,304,7.6,10.1,39,0.00,,,0.12,VWS V13.01,2013-02-08 15:12:00,
2013-02-08 10:17:00,39.6,16.7,29.29,NW,325,8.1,8.3,39,0.00,,,0.12,VWS V13.01,2013-02-08 15:17:00,
2013-02-08 10:22:00,39.6,16.1,29.29,WNW,291,8.1,15.4,38,0.00,,,0.12,VWS V13.01,2013-02-08 15:22:00,
2013-02-08 10:27:00,39.6,14.8,29.29,NW,321,17.4,17.4,36,0.00,,,0.12,VWS V13.01,2013-02-08 15:27:00,
2013-02-08 10:32:00,39.4,13.4,29.29,NW,308,8.3,10.5,34,0.00,,,0.12,VWS V13.01,2013-02-08 15:32:00,
2013-02-08 10:37:00,39.4,12.7,29.32,WNW,294,5.8,11.4,33,0.00,,,0.12,VWS V13.01,2013-02-08 15:37:00,
2013-02-08 10:42:00,39.6,12.9,29.32,NNE,28,5.8,11.0,33,0.00,,,0.12,VWS V13.01,2013-02-08 15:42:00,
2013-02-08 10:47:00,39.6,11.4,29.32,NNW,344,6.3,13.2,31,0.00,,,0.12,VWS V13.01,2013-02-08 15:47:00,
2013-02-08 10:52:00,39.6,11.4,29.32,NW,315,10.5,10.5,31,0.00,,,0.12,VWS V13.01,2013-02-08 15:52:00,
2013-02-08 10:57:00,39.4,11.3,29.32,WNW,294,8.3,12.8,31,0.00,,,0.12,VWS V13.01,2013-02-08 15:57:00,
2013-02-08 11:02:00,39.4,12.0,29.32,NNW,334,15.0,15.0,32,0.00,,,0.12,VWS V13.01,2013-02-08 16:02:00,
2013-02-08 11:07:00,39.4,12.0,29.32,WNW,301,6.3,10.5,32,0.00,,,0.12,VWS V13.01,2013-02-08 16:07:00,
2013-02-08 11:12:00,39.4,12.7,29.32,NW,306,10.5,10.5,33,0.00,,,0.12,VWS V13.01,2013-02-08 16:12:00,
2013-02-08 11:17:00,39.4,12.7,29.32,WNW,289,6.3,8.3,33,0.00,,,0.12,VWS V13.01,2013-02-08 16:17:00,
2013-02-08 11:22:00,39.2,12.5,29.35,WNW,285,10.1,14.5,33,0.00,,,0.12,VWS V13.01,2013-02-08 16:22:00,
2013-02-08 11:27:00,39.2,13.2,29.35,NW,315,5.4,8.1,34,0.00,,,0.12,VWS V13.01,2013-02-08 16:27:00,
2013-02-08 11:32:00,39.2,13.2,29.35,NW,314,6.3,10.1,34,0.00,,,0.12,VWS V13.01,2013-02-08 16:32:00,
2013-02-08 11:37:00,39.0,13.0,29.35,NW,304,8.1,10.5,34,0.00,,,0.12,VWS V13.01,2013-02-08 16:37:00,
2013-02-08 11:42:00,38.8,12.9,29.35,North,353,10.1,16.3,34,0.00,,,0.12,VWS V13.01,2013-02-08 16:42:00,
2013-02-08 11:47:00,38.7,12.7,29.35,NNW,346,5.4,10.1,34,0.00,,,0.12,VWS V13.01,2013-02-08 16:47:00,
2013-02-08 11:52:00,38.5,13.2,29.35,WNW,295,8.3,8.7,35,0.00,,,0.12,VWS V13.01,2013-02-08 16:52:00,
2013-02-08 11:57:00,38.5,11.9,29.35,WNW,298,4.0,10.1,33,0.00,,,0.12,VWS V13.01,2013-02-08 16:57:00,
2013-02-08 12:02:00,38.5,12.6,29.35,WNW,302,5.4,6.7,34,0.00,,,0.12,VWS V13.01,2013-02-08 17:02:00,
2013-02-08 12:07:00,38.5,11.9,29.35,NNW,338,11.4,11.4,33,0.00,,,0.12,VWS V13.01,2013-02-08 17:07:00,
2013-02-08 12:12:00,38.3,11.7,29.35,NNW,328,7.6,7.6,33,0.00,,,0.12,VWS V13.01,2013-02-08 17:12:00,
2013-02-08 12:17:00,38.5,11.9,29.35,WNW,289,5.4,8.7,33,0.00,,,0.12,VWS V13.01,2013-02-08 17:17:00,
2013-02-08 12:22:00,38.5,11.9,29.35,NNW,331,6.3,10.1,33,0.00,,,0.12,VWS V13.01,2013-02-08 17:22:00,
2013-02-08 12:27:00,38.5,11.9,29.35,NW,313,2.7,8.3,33,0.00,,,0.12,VWS V13.01,2013-02-08 17:27:00,
2013-02-08 12:32:00,38.5,12.6,29.35,NNW,343,5.4,7.6,34,0.00,,,0.12,VWS V13.01,2013-02-08 17:32:00,
2013-02-08 12:37:00,38.3,11.7,29.35,WNW,284,6.3,8.1,33,0.00,,,0.12,VWS V13.01,2013-02-08 17:37:00,
2013-02-08 12:42:00,38.1,11.6,29.35,WNW,294,12.8,15.4,33,0.00,,,0.12,VWS V13.01,2013-02-08 17:42:00,
2013-02-08 12:47:00,37.9,11.4,29.35,NW,310,10.1,10.5,33,0.00,,,0.12,VWS V13.01,2013-02-08 17:47:00,
2013-02-08 12:52:00,37.9,12.1,29.38,NW,316,6.7,11.0,34,0.00,,,0.12,VWS V13.01,2013-02-08 17:52:00,
2013-02-08 12:57:00,37.9,12.1,29.38,WNW,302,6.3,13.2,34,0.00,,,0.12,VWS V13.01,2013-02-08 17:57:00,
2013-02-08 13:02:00,37.9,12.1,29.38,NW,320,4.0,8.7,34,0.00,,,0.12,VWS V13.01,2013-02-08 18:02:00,
2013-02-08 13:07:00,37.9,11.4,29.38,NNW,327,7.6,7.6,33,0.00,,,0.12,VWS V13.01,2013-02-08 18:07:00,
2013-02-08 13:12:00,38.1,11.6,29.38,WNW,297,6.3,6.3,33,0.00,,,0.12,VWS V13.01,2013-02-08 18:12:00,
2013-02-08 13:17:00,38.1,11.6,29.38,NW,316,5.4,8.7,33,0.00,,,0.12,VWS V13.01,2013-02-08 18:17:00,
2013-02-08 13:22:00,38.1,11.6,29.38,NW,320,6.7,6.7,33,0.00,,,0.12,VWS V13.01,2013-02-08 18:22:00,
2013-02-08 13:28:00,38.1,10.9,29.38,NW,304,8.3,11.0,32,0.00,,,0.12,VWS V13.01,2013-02-08 18:28:00,
2013-02-08 13:33:00,38.1,10.2,29.38,North,349,7.6,11.0,31,0.00,,,0.12,VWS V13.01,2013-02-08 18:33:00,
2013-02-08 13:38:00,37.9,10.0,29.38,NW,325,6.3,10.5,31,0.00,,,0.12,VWS V13.01,2013-02-08 18:38:00,
2013-02-08 13:43:00,37.9,10.0,29.38,NW,315,8.7,11.4,31,0.00,,,0.12,VWS V13.01,2013-02-08 18:43:00,
2013-02-08 13:48:00,37.9,10.0,29.38,NNW,340,8.1,8.7,31,0.00,,,0.12,VWS V13.01,2013-02-08 18:48:00,
2013-02-08 13:55:00,37.8,9.9,29.38,WNW,301,8.7,13.6,31,0.00,,,0.12,VWS V13.01,2013-02-08 18:55:00,
2013-02-08 14:00:00,37.8,9.9,29.38,NW,307,8.1,13.2,31,0.00,,,0.12,VWS V13.01,2013-02-08 19:00:00,
2013-02-08 14:10:00,37.8,9.9,29.38,WNW,290,8.7,11.4,31,0.00,,,0.12,VWS V13.01,2013-02-08 19:10:00,
2013-02-08 14:15:00,37.8,9.9,29.38,WNW,302,3.6,10.1,31,0.00,,,0.12,VWS V13.01,2013-02-08 19:15:00,
2013-02-08 14:20:00,37.8,9.9,29.38,NNW,328,8.3,10.5,31,0.00,,,0.12,VWS V13.01,2013-02-08 19:20:00,
2013-02-08 14:25:00,37.8,10.6,29.38,WNW,303,4.9,10.5,32,0.00,,,0.12,VWS V13.01,2013-02-08 19:25:00,
2013-02-08 14:30:00,37.9,10.7,29.38,NW,309,3.6,8.3,32,0.00,,,0.12,VWS V13.01,2013-02-08 19:30:00,
2013-02-08 14:35:00,37.8,10.6,29.38,NW,314,8.1,11.9,32,0.00,,,0.12,VWS V13.01,2013-02-08 19:35:00,
2013-02-08 14:45:00,37.8,11.3,29.38,NNW,331,8.7,12.3,33,0.00,,,0.12,VWS V13.01,2013-02-08 19:45:00,
2013-02-08 14:52:00,37.8,11.3,29.38,NW,312,10.1,10.1,33,0.00,,,0.12,VWS V13.01,2013-02-08 19:52:00,
2013-02-08 14:57:00,37.9,11.4,29.38,WNW,295,6.3,6.3,33,0.00,,,0.12,VWS V13.01,2013-02-08 19:57:00,
2013-02-08 15:02:00,37.9,11.4,29.38,NNW,332,5.4,8.7,33,0.00,,,0.12,VWS V13.01,2013-02-08 20:02:00,
2013-02-08 15:07:00,37.9,11.4,29.38,WNW,291,7.6,11.9,33,0.00,,,0.12,VWS V13.01,2013-02-08 20:07:00,
2013-02-08 15:12:00,37.9,10.0,29.38,WNW,297,5.8,9.2,31,0.00,,,0.12,VWS V13.01,2013-02-08 20:12:00,
2013-02-08 15:17:00,37.9,10.0,29.41,WNW,287,8.1,9.2,31,0.00,,,0.12,VWS V13.01,2013-02-08 20:17:00,
2013-02-08 15:22:00,37.9,9.3,29.41,NNW,331,8.7,11.0,30,0.00,,,0.12,VWS V13.01,2013-02-08 20:22:00,
2013-02-08 15:27:00,37.9,9.3,29.41,NW,309,8.1,12.3,30,0.00,,,0.12,VWS V13.01,2013-02-08 20:27:00,
2013-02-08 15:32:00,37.9,9.3,29.41,WNW,284,6.3,11.0,30,0.00,,,0.12,VWS V13.01,2013-02-08 20:32:00,
2013-02-08 15:37:00,37.9,8.5,29.41,WNW,300,6.7,8.1,29,0.00,,,0.12,VWS V13.01,2013-02-08 20:37:00,
2013-02-08 15:42:00,37.9,8.5,29.41,NNW,335,7.6,14.5,29,0.00,,,0.12,VWS V13.01,2013-02-08 20:42:00,
2013-02-08 15:47:00,37.9,8.5,29.41,WNW,298,6.3,10.1,29,0.00,,,0.12,VWS V13.01,2013-02-08 20:47:00,
2013-02-08 15:52:00,37.9,8.5,29.41,WNW,299,8.7,8.7,29,0.00,,,0.12,VWS V13.01,2013-02-08 20:52:00,
2013-02-08 15:57:00,37.9,8.5,29.41,NNW,333,5.8,6.3,29,0.00,,,0.12,VWS V13.01,2013-02-08 20:57:00,
2013-02-08 16:02:00,37.9,8.5,29.41,NW,315,5.8,11.0,29,0.00,,,0.12,VWS V13.01,2013-02-08 21:02:00,
2013-02-08 16:07:00,37.9,8.5,29.41,NW,324,3.1,9.6,29,0.00,,,0.12,VWS V13.01,2013-02-08 21:07:00,
2013-02-08 16:12:00,37.9,8.5,29.41,NW,314,5.8,8.7,29,0.00,,,0.12,VWS V13.01,2013-02-08 21:12:00,
2013-02-08 16:17:00,37.9,8.5,29.41,WNW,300,8.1,10.5,29,0.00,,,0.12,VWS V13.01,2013-02-08 21:17:00,
2013-02-08 16:22:00,37.9,8.5,29.41,WNW,294,5.4,5.8,29,0.00,,,0.12,VWS V13.01,2013-02-08 21:22:00,
2013-02-08 16:27:00,38.1,8.7,29.41,NW,305,5.4,7.6,29,0.00,,,0.12,VWS V13.01,2013-02-08 21:27:00,
2013-02-08 16:32:00,38.1,8.7,29.44,NW,320,5.8,8.3,29,0.00,,,0.12,VWS V13.01,2013-02-08 21:32:00,
2013-02-08 16:37:00,37.9,8.5,29.44,NW,304,7.6,11.4,29,0.00,,,0.12,VWS V13.01,2013-02-08 21:37:00,
2013-02-08 16:42:00,38.1,8.7,29.44,WNW,302,5.8,5.8,29,0.00,,,0.12,VWS V13.01,2013-02-08 21:42:00,
2013-02-08 16:47:00,38.1,8.7,29.44,NNW,327,8.7,8.7,29,0.00,,,0.12,VWS V13.01,2013-02-08 21:47:00,
2013-02-08 16:52:00,38.1,8.7,29.44,NW,312,4.0,5.4,29,0.00,,,0.12,VWS V13.01,2013-02-08 21:52:00,
2013-02-08 16:57:00,38.1,9.4,29.44,WNW,299,4.9,6.3,30,0.00,,,0.12,VWS V13.01,2013-02-08 21:57:00,
2013-02-08 17:03:00,38.1,8.7,29.44,WNW,291,6.3,7.6,29,0.00,,,0.12,VWS V13.01,2013-02-08 22:03:00,
2013-02-08 17:08:00,38.1,9.4,29.44,NW,310,5.4,6.3,30,0.00,,,0.12,VWS V13.01,2013-02-08 22:08:00,
2013-02-08 17:12:00,37.9,9.3,29.44,NNW,341,10.5,10.5,30,0.00,,,0.12,VWS V13.01,2013-02-08 22:12:00,
2013-02-08 17:17:00,37.9,9.3,29.44,WNW,287,10.5,15.4,30,0.00,,,0.12,VWS V13.01,2013-02-08 22:17:00,
2013-02-08 17:22:00,37.6,9.0,29.44,WNW,294,8.7,13.2,30,0.00,,,0.12,VWS V13.01,2013-02-08 22:22:00,
2013-02-08 17:27:00,37.6,9.7,29.44,WNW,290,7.6,10.1,31,0.00,,,0.12,VWS V13.01,2013-02-08 22:27:00,
2013-02-08 17:32:00,37.6,9.7,29.47,WNW,303,8.1,9.2,31,0.00,,,0.12,VWS V13.01,2013-02-08 22:32:00,
2013-02-08 17:37:00,37.6,9.0,29.47,WNW,303,7.2,10.1,30,0.00,,,0.12,VWS V13.01,2013-02-08 22:37:00,
2013-02-08 17:43:00,37.6,9.0,29.47,WNW,290,7.6,7.6,30,0.00,,,0.12,VWS V13.01,2013-02-08 22:43:00,
2013-02-08 17:48:00,37.4,8.8,29.47,NW,304,9.2,10.5,30,0.00,,,0.12,VWS V13.01,2013-02-08 22:48:00,
2013-02-08 17:56:00,37.4,9.5,29.47,NW,318,4.0,8.1,31,0.00,,,0.12,VWS V13.01,2013-02-08 22:56:00,
2013-02-08 18:06:00,37.4,8.8,29.47,NW,318,10.1,10.1,30,0.00,,,0.12,VWS V13.01,2013-02-08 23:06:00,
2013-02-08 18:11:00,37.4,8.8,29.47,NNW,345,3.6,10.1,30,0.00,,,0.12,VWS V13.01,2013-02-08 23:11:00,
2013-02-08 18:21:00,37.4,8.1,29.47,NNW,341,8.3,15.4,29,0.00,,,0.12,VWS V13.01,2013-02-08 23:21:00,
2013-02-08 18:31:00,37.2,8.6,29.47,NW,316,7.2,10.5,30,0.00,,,0.12,VWS V13.01,2013-02-08 23:31:00,
2013-02-08 18:36:00,37.2,8.6,29.47,NW,305,7.6,8.7,30,0.00,,,0.12,VWS V13.01,2013-02-08 23:36:00,
2013-02-08 18:41:00,37.2,8.6,29.47,NW,311,10.1,12.3,30,0.00,,,0.12,VWS V13.01,2013-02-08 23:41:00,
2013-02-08 18:50:00,37.0,8.5,29.50,WNW,301,8.1,11.0,30,0.00,,,0.12,VWS V13.01,2013-02-08 23:50:00,
2013-02-08 18:55:00,37.0,8.5,29.50,NNW,327,8.3,10.1,30,0.00,,,0.12,VWS V13.01,2013-02-08 23:55:00,
2013-02-08 19:00:00,37.0,8.5,29.50,NW,316,8.1,12.8,30,0.00,,,0.12,VWS V13.01,2013-02-09 00:00:00,
2013-02-08 19:05:00,37.0,8.5,29.50,WNW,286,8.7,10.1,30,0.00,,,0.12,VWS V13.01,2013-02-09 00:05:00,
2013-02-08 19:10:00,37.0,8.5,29.50,NW,317,3.1,10.1,30,0.00,,,0.12,VWS V13.01,2013-02-09 00:10:00,
2013-02-08 19:15:00,37.0,7.8,29.50,WNW,294,10.1,10.1,29,0.00,,,0.12,VWS V13.01,2013-02-09 00:15:00,
2013-02-08 19:20:00,37.0,7.8,29.50,NNW,328,10.1,12.8,29,0.00,,,0.12,VWS V13.01,2013-02-09 00:20:00,
2013-02-08 19:25:00,37.0,7.8,29.50,West,281,5.8,13.2,29,0.00,,,0.12,VWS V13.01,2013-02-09 00:25:00,
2013-02-08 19:30:00,37.0,7.8,29.50,WNW,301,7.2,8.7,29,0.00,,,0.12,VWS V13.01,2013-02-09 00:30:00,
2013-02-08 19:36:00,37.0,7.8,29.50,NW,305,8.3,9.6,29,0.00,,,0.12,VWS V13.01,2013-02-09 00:36:00,
2013-02-08 19:40:00,37.0,7.8,29.50,NW,317,5.4,8.3,29,0.00,,,0.12,VWS V13.01,2013-02-09 00:40:00,
2013-02-08 19:45:00,36.9,8.3,29.50,NW,309,5.8,7.6,30,0.00,,,0.12,VWS V13.01,2013-02-09 00:45:00,
2013-02-08 19:50:00,36.9,8.3,29.50,WNW,294,4.0,8.3,30,0.00,,,0.12,VWS V13.01,2013-02-09 00:50:00,
2013-02-08 19:55:00,36.9,8.3,29.50,WNW,289,5.8,6.3,30,0.00,,,0.12,VWS V13.01,2013-02-09 00:55:00,
2013-02-08 20:01:00,36.9,8.3,29.50,NW,320,8.7,8.7,30,0.00,,,0.12,VWS V13.01,2013-02-09 01:01:00,
2013-02-08 20:05:00,36.9,8.3,29.53,NNW,338,4.9,11.0,30,0.00,,,0.12,VWS V13.01,2013-02-09 01:05:00,
2013-02-08 20:11:00,36.9,8.3,29.53,NW,310,5.4,8.3,30,0.00,,,0.12,VWS V13.01,2013-02-09 01:11:00,
2013-02-08 20:16:00,36.9,8.3,29.53,WNW,287,4.9,10.5,30,0.00,,,0.12,VWS V13.01,2013-02-09 01:16:00,
2013-02-08 20:21:00,36.9,8.3,29.53,NW,311,5.8,5.8,30,0.00,,,0.12,VWS V13.01,2013-02-09 01:21:00,
2013-02-08 20:26:00,36.9,8.3,29.53,NW,314,5.4,10.1,30,0.00,,,0.12,VWS V13.01,2013-02-09 01:26:00,
2013-02-08 20:31:00,36.9,8.3,29.53,NW,316,3.6,8.1,30,0.00,,,0.12,VWS V13.01,2013-02-09 01:31:00,
2013-02-08 20:36:00,36.7,8.2,29.53,WNW,302,8.1,8.3,30,0.00,,,0.12,VWS V13.01,2013-02-09 01:36:00,
2013-02-08 20:41:00,36.7,8.2,29.53,NW,326,6.3,7.6,30,0.00,,,0.12,VWS V13.01,2013-02-09 01:41:00,
2013-02-08 20:46:00,36.7,8.2,29.53,NNW,332,3.6,6.3,30,0.00,,,0.12,VWS V13.01,2013-02-09 01:46:00,
2013-02-08 20:51:00,36.7,8.2,29.53,NW,313,3.6,6.3,30,0.00,,,0.12,VWS V13.01,2013-02-09 01:51:00,
2013-02-08 20:56:00,36.7,8.2,29.53,NNW,339,5.4,7.6,30,0.00,,,0.12,VWS V13.01,2013-02-09 01:56:00,
2013-02-08 21:01:00,36.7,8.2,29.53,NW,304,5.8,7.6,30,0.00,,,0.12,VWS V13.01,2013-02-09 02:01:00,
2013-02-08 21:06:00,36.7,8.2,29.53,NW,312,3.1,8.3,30,0.00,,,0.12,VWS V13.01,2013-02-09 02:06:00,
2013-02-08 21:11:00,36.7,8.2,29.53,NW,310,2.7,6.3,30,0.00,,,0.12,VWS V13.01,2013-02-09 02:11:00,
2013-02-08 21:16:00,36.7,8.2,29.53,NNE,15,5.8,5.8,30,0.00,,,0.12,VWS V13.01,2013-02-09 02:16:00,
2013-02-08 21:21:00,36.7,8.2,29.56,NW,311,5.8,6.3,30,0.00,,,0.12,VWS V13.01,2013-02-09 02:21:00,
2013-02-08 21:26:00,36.7,8.2,29.56,WNW,294,2.2,5.4,30,0.00,,,0.12,VWS V13.01,2013-02-09 02:26:00,
2013-02-08 21:31:00,36.5,8.0,29.56,NW,320,2.7,2.7,30,0.00,,,0.12,VWS V13.01,2013-02-09 02:31:00,
2013-02-08 21:36:00,36.5,8.0,29.56,NW,308,2.7,2.7,30,0.00,,,0.12,VWS V13.01,2013-02-09 02:36:00,
2013-02-08 21:41:00,36.5,8.0,29.56,WNW,294,2.7,3.6,30,0.00,,,0.12,VWS V13.01,2013-02-09 02:41:00,
2013-02-08 21:46:00,36.5,8.0,29.56,NW,314,5.4,5.8,30,0.00,,,0.12,VWS V13.01,2013-02-09 02:46:00,
2013-02-08 21:51:00,36.5,8.0,29.56,NW,315,3.6,4.0,30,0.00,,,0.12,VWS V13.01,2013-02-09 02:51:00,
2013-02-08 21:56:00,36.5,8.8,29.56,WNW,299,7.6,7.6,31,0.00,,,0.12,VWS V13.01,2013-02-09 02:56:00,
2013-02-08 22:01:00,36.5,8.8,29.56,WNW,290,5.4,6.7,31,0.00,,,0.12,VWS V13.01,2013-02-09 03:01:00,
2013-02-08 22:06:00,36.5,8.8,29.56,WNW,299,5.4,5.8,31,0.00,,,0.12,VWS V13.01,2013-02-09 03:06:00,
2013-02-08 22:11:00,36.3,8.6,29.56,WNW,285,3.1,4.9,31,0.00,,,0.12,VWS V13.01,2013-02-09 03:11:00,
2013-02-08 22:16:00,36.3,8.6,29.56,NW,317,5.4,8.1,31,0.00,,,0.12,VWS V13.01,2013-02-09 03:16:00,
2013-02-08 22:21:00,36.3,8.6,29.56,NW,304,5.4,5.4,31,0.00,,,0.12,VWS V13.01,2013-02-09 03:21:00,
2013-02-08 22:26:00,36.3,8.6,29.56,NW,319,2.7,3.6,31,0.00,,,0.12,VWS V13.01,2013-02-09 03:26:00,
2013-02-08 22:31:00,36.3,8.6,29.56,NW,315,2.7,4.0,31,0.00,,,0.12,VWS V13.01,2013-02-09 03:31:00,
2013-02-08 22:36:00,36.3,8.6,29.56,NW,326,2.7,4.0,31,0.00,,,0.12,VWS V13.01,2013-02-09 03:36:00,
2013-02-08 22:41:00,36.3,8.6,29.56,NW,326,0.0,2.7,31,0.00,,,0.12,VWS V13.01,2013-02-09 03:41:00,
2013-02-08 22:46:00,36.3,8.6,29.56,NNW,341,2.7,2.7,31,0.00,,,0.12,VWS V13.01,2013-02-09 03:46:00,
2013-02-08 22:51:00,36.3,8.6,29.56,WNW,297,2.2,2.7,31,0.00,,,0.12,VWS V13.01,2013-02-09 03:51:00,
2013-02-08 22:56:00,36.3,8.6,29.56,WNW,303,0.0,3.6,31,0.00,,,0.12,VWS V13.01,2013-02-09 03:56:00,
2013-02-08 23:01:00,36.1,9.1,29.56,West,280,0.0,3.1,32,0.00,,,0.12,VWS V13.01,2013-02-09 04:01:00,
2013-02-08 23:06:00,36.1,9.1,29.56,West,280,2.2,2.7,32,0.00,,,0.12,VWS V13.01,2013-02-09 04:06:00,
2013-02-08 23:11:00,36.1,9.1,29.56,NW,314,0.0,3.6,32,0.00,,,0.12,VWS V13.01,2013-02-09 04:11:00,
2013-02-08 23:16:00,36.1,9.1,29.56,NW,314,0.0,2.7,32,0.00,,,0.12,VWS V13.01,2013-02-09 04:16:00,
2013-02-08 23:21:00,36.1,9.1,29.53,NNW,329,0.0,3.1,32,0.00,,,0.12,VWS V13.01,2013-02-09 04:21:00,
2013-02-08 23:26:00,36.1,9.1,29.53,WNW,300,2.7,4.0,32,0.00,,,0.12,VWS V13.01,2013-02-09 04:26:00,
2013-02-08 23:31:00,36.1,9.1,29.53,WNW,297,0.0,3.6,32,0.00,,,0.12,VWS V13.01,2013-02-09 04:31:00,
2013-02-08 23:36:00,36.1,9.1,29.56,WNW,299,3.6,3.6,32,0.00,,,0.12,VWS V13.01,2013-02-09 04:36:00,
2013-02-08 23:41:00,36.1,9.1,29.56,NW,306,3.1,4.0,32,0.00,,,0.12,VWS V13.01,2013-02-09 04:41:00,
2013-02-08 23:46:00,36.1,9.1,29.56,NW,319,2.7,4.9,32,0.00,,,0.12,VWS V13.01,2013-02-09 04:46:00,
2013-02-08 23:51:00,36.0,9.0,29.56,NW,316,2.2,2.2,32,0.00,,,0.12,VWS V13.01,2013-02-09 04:51:00,
2013-02-08 23:56:00,36.0,9.0,29.56,NW,318,2.7,2.7,32,0.00,,,0.12,VWS V13.01,2013-02-09 04:56:00,